createdAt,value
2019-03-30T00:02:03.117Z,100682.17
2019-03-30T00:04:30.346Z,100683.16
2019-03-30T00:06:57.659Z,100687.84
2019-03-30T00:09:24.998Z,100681.88
2019-03-30T00:11:52.223Z,100680.19
2019-03-30T00:14:19.549Z,100682.70
2019-03-30T00:16:46.758Z,100683.25
2019-03-30T00:19:14.097Z,100683.45
2019-03-30T00:21:41.418Z,100683.81
2019-03-30T00:24:08.747Z,100678.14
2019-03-30T00:26:35.994Z,100680.03
2019-03-30T00:29:03.329Z,100679.95
2019-03-30T00:31:30.542Z,100676.70
2019-03-30T00:33:57.873Z,100668.38
2019-03-30T00:36:25.085Z,100671.79
2019-03-30T00:38:52.430Z,100668.00
2019-03-30T00:41:19.730Z,100663.22
2019-03-30T00:43:47.291Z,100671.06
2019-03-30T00:46:14.671Z,100665.08
2019-03-30T00:48:41.912Z,100669.58
2019-03-30T00:51:09.256Z,100669.81
2019-03-30T00:53:36.577Z,100660.16
2019-03-30T00:56:03.929Z,100662.84
2019-03-30T00:58:31.182Z,100662.74
2019-03-30T01:00:58.500Z,100664.29
2019-03-30T01:03:25.858Z,100659.42
2019-03-30T01:05:53.204Z,100663.68
2019-03-30T01:08:20.413Z,100664.97
2019-03-30T01:10:47.766Z,100660.15
2019-03-30T01:13:14.988Z,100656.30
2019-03-30T01:15:42.209Z,100658.09
2019-03-30T01:18:09.538Z,100650.95
2019-03-30T01:20:36.879Z,100661.15
2019-03-30T01:23:04.214Z,100649.22
2019-03-30T01:25:31.452Z,100646.42
2019-03-30T01:27:58.672Z,100647.42
2019-03-30T01:30:26.036Z,100645.22
2019-03-30T01:32:53.257Z,100642.98
2019-03-30T01:35:20.774Z,100632.19
2019-03-30T01:37:48.518Z,100639.88
2019-03-30T01:40:15.872Z,100639.53
2019-03-30T01:42:43.194Z,100644.27
2019-03-30T01:45:10.724Z,100638.21
2019-03-30T01:47:38.046Z,100638.21
2019-03-30T01:50:27.887Z,100640.02
2019-03-30T01:52:55.114Z,100643.40
2019-03-30T01:55:22.377Z,100637.37
2019-03-30T01:57:49.644Z,100627.13
2019-03-30T02:00:17.112Z,100627.13
2019-03-30T02:02:44.456Z,100627.47
2019-03-30T02:05:11.817Z,100616.50
2019-03-30T02:07:39.460Z,100620.93
2019-03-30T02:10:08.823Z,100614.80
2019-03-30T02:12:36.054Z,100606.81
2019-03-30T02:15:03.921Z,100619.53
2019-03-30T02:17:31.251Z,100619.53
2019-03-30T02:19:58.591Z,100621.66
2019-03-30T02:22:25.908Z,100595.38
2019-03-30T02:24:53.241Z,100616.27
2019-03-30T02:27:20.564Z,100608.45
2019-03-30T02:29:47.917Z,100612.77
2019-03-30T02:32:15.232Z,100531.84
2019-03-30T02:34:42.498Z,100603.31
2019-03-30T02:37:09.721Z,100611.83
2019-03-30T02:39:37.293Z,100616.67
2019-03-30T02:42:04.632Z,100602.55
2019-03-30T02:44:31.962Z,100604.86
2019-03-30T02:46:59.297Z,100610.58
2019-03-30T02:49:26.553Z,100598.91
2019-03-30T02:51:53.890Z,100605.72
2019-03-30T02:54:21.146Z,100594.36
2019-03-30T02:56:48.426Z,100594.36
2019-03-30T02:59:15.732Z,100596.68
2019-03-30T03:01:43.088Z,100586.92
2019-03-30T03:04:10.522Z,100586.92
2019-03-30T03:06:37.902Z,100585.45
2019-03-30T03:09:07.501Z,100568.02
2019-03-30T03:11:34.824Z,100568.02
2019-03-30T03:14:02.149Z,100574.36
2019-03-30T03:16:29.503Z,100571.45
2019-03-30T03:18:56.825Z,100572.73
2019-03-30T03:21:24.195Z,100571.73
2019-03-30T03:23:51.525Z,100566.41
2019-03-30T03:26:18.873Z,100568.47
2019-03-30T03:28:46.205Z,100560.88
2019-03-30T03:31:13.550Z,100559.09
2019-03-30T03:33:40.981Z,100555.44
2019-03-30T03:36:08.224Z,100546.78
2019-03-30T03:38:35.442Z,100540.75
2019-03-30T03:41:03.113Z,100537.16
2019-03-30T03:43:30.410Z,100427.64
2019-03-30T03:45:57.644Z,100534.27
2019-03-30T03:48:24.990Z,100547.29
2019-03-30T03:50:59.003Z,100541.12
2019-03-30T03:53:26.335Z,100535.62
2019-03-30T03:56:16.114Z,100528.45
2019-03-30T03:58:46.236Z,100522.72
2019-03-30T04:01:16.799Z,100522.23
2019-03-30T04:03:46.356Z,100522.30
2019-03-30T04:06:15.496Z,100520.74
2019-03-30T04:08:44.920Z,100517.53
2019-03-30T04:11:14.548Z,100510.06
2019-03-30T04:13:45.046Z,100507.55
2019-03-30T04:16:12.371Z,100513.48
2019-03-30T04:18:39.596Z,100517.27
2019-03-30T04:21:06.939Z,100509.94
2019-03-30T04:23:34.249Z,100508.30
2019-03-30T04:26:01.392Z,100507.28
2019-03-30T04:28:28.704Z,100511.63
2019-03-30T04:30:55.972Z,100508.80
2019-03-30T04:33:23.275Z,100506.59
2019-03-30T04:35:50.610Z,100507.04
2019-03-30T04:38:17.940Z,100507.03
2019-03-30T04:40:45.261Z,100502.13
2019-03-30T04:43:12.592Z,100503.55
2019-03-30T04:45:39.971Z,100497.98
2019-03-30T04:48:07.181Z,100506.04
2019-03-30T04:50:34.528Z,100501.92
2019-03-30T04:53:01.870Z,100501.42
2019-03-30T04:55:29.200Z,100498.64
2019-03-30T04:57:57.717Z,100497.64
2019-03-30T05:00:25.355Z,100497.58
2019-03-30T05:02:52.591Z,100491.17
2019-03-30T05:05:19.810Z,100491.57
2019-03-30T05:07:47.031Z,100496.36
2019-03-30T05:10:14.362Z,100490.42
2019-03-30T05:12:41.498Z,100494.00
2019-03-30T05:15:08.914Z,100501.63
2019-03-30T05:17:46.694Z,100496.23
2019-03-30T05:20:05.973Z,100494.00
2019-03-30T05:22:33.311Z,100486.08
2019-03-30T05:25:00.824Z,100488.05
2019-03-30T05:27:28.197Z,100489.38
2019-03-30T05:29:55.501Z,100487.36
2019-03-30T05:32:22.832Z,100486.91
2019-03-30T05:34:50.149Z,100487.04
2019-03-30T05:37:17.476Z,100487.69
2019-03-30T05:39:45.088Z,100484.58
2019-03-30T05:42:12.311Z,100488.42
2019-03-30T05:44:39.623Z,100490.05
2019-03-30T05:47:06.762Z,100492.48
2019-03-30T05:49:34.085Z,100484.70
2019-03-30T05:52:01.433Z,100488.52
2019-03-30T05:54:28.809Z,100496.21
2019-03-30T05:56:55.938Z,100492.79
2019-03-30T05:59:23.278Z,100484.70
2019-03-30T06:01:51.481Z,100490.27
2019-03-30T06:04:18.820Z,100481.95
2019-03-30T06:06:46.215Z,100494.53
2019-03-30T06:09:13.431Z,100502.45
2019-03-30T06:11:40.755Z,100487.89
2019-03-30T06:14:07.911Z,100497.31
2019-03-30T06:16:35.130Z,100484.98
2019-03-30T06:19:02.462Z,100484.77
2019-03-30T06:21:29.694Z,100486.88
2019-03-30T06:23:57.035Z,100486.94
2019-03-30T06:26:24.263Z,100482.66
2019-03-30T06:28:51.632Z,100477.77
2019-03-30T06:31:18.836Z,100477.92
2019-03-30T06:33:46.081Z,100468.08
2019-03-30T06:36:13.280Z,100470.20
2019-03-30T06:38:40.613Z,100467.74
2019-03-30T06:41:07.929Z,100456.91
2019-03-30T06:43:35.403Z,100464.67
2019-03-30T06:46:02.692Z,100448.83
2019-03-30T06:48:30.045Z,100454.58
2019-03-30T06:50:57.351Z,100451.53
2019-03-30T06:53:24.736Z,100443.52
2019-03-30T06:55:52.056Z,100443.09
2019-03-30T06:58:19.860Z,100430.98
2019-03-30T07:00:47.784Z,100434.01
2019-03-30T07:03:15.113Z,100424.80
2019-03-30T07:05:43.152Z,100418.95
2019-03-30T07:08:31.132Z,100420.65
2019-03-30T07:11:01.329Z,100405.86
2019-03-30T07:13:31.880Z,100404.62
2019-03-30T07:16:00.208Z,100407.33
2019-03-30T07:18:28.062Z,100415.33
2019-03-30T07:20:55.374Z,100424.86
2019-03-30T07:23:22.618Z,100419.06
2019-03-30T07:25:49.828Z,100409.07
2019-03-30T07:28:17.179Z,100408.46
2019-03-30T07:30:44.514Z,100404.78
2019-03-30T07:33:11.882Z,100396.11
2019-03-30T07:35:39.119Z,100397.33
2019-03-30T07:38:06.487Z,100389.64
2019-03-30T07:40:34.147Z,100401.61
2019-03-30T07:43:02.294Z,100402.87
2019-03-30T07:45:29.639Z,100402.25
2019-03-30T07:47:57.079Z,100396.17
2019-03-30T07:50:24.699Z,100392.14
2019-03-30T07:52:52.654Z,100393.09
2019-03-30T07:55:20.286Z,100383.84
2019-03-30T07:57:47.635Z,100393.89
2019-03-30T08:00:15.679Z,100388.08
2019-03-30T08:02:43.017Z,100390.03
2019-03-30T08:05:10.696Z,100386.88
2019-03-30T08:07:38.006Z,100388.91
2019-03-30T08:10:05.463Z,100384.73
2019-03-30T08:12:32.771Z,100401.91
2019-03-30T08:15:00.345Z,100389.00
2019-03-30T08:17:27.754Z,100384.45
2019-03-30T08:19:54.995Z,100385.95
2019-03-30T08:22:22.312Z,100382.48
2019-03-30T08:24:49.638Z,100389.06
2019-03-30T08:27:16.955Z,100386.39
2019-03-30T08:29:44.295Z,100384.87
2019-03-30T08:32:11.609Z,100378.50
2019-03-30T08:34:38.834Z,100375.59
2019-03-30T08:37:06.160Z,100385.67
2019-03-30T08:39:33.499Z,100388.99
2019-03-30T08:42:01.117Z,100385.79
2019-03-30T08:44:28.696Z,100385.40
2019-03-30T08:46:56.333Z,100388.16
2019-03-30T08:49:23.688Z,100374.51
2019-03-30T08:51:51.016Z,100375.38
2019-03-30T08:54:18.363Z,100373.32
2019-03-30T08:56:45.714Z,100363.81
2019-03-30T08:59:12.982Z,100373.95
2019-03-30T09:01:40.313Z,100371.91
2019-03-30T09:04:07.664Z,100366.22
2019-03-30T09:06:35.008Z,100365.53
2019-03-30T09:09:04.255Z,100366.24
2019-03-30T09:11:31.473Z,100370.85
2019-03-30T09:13:58.834Z,100362.97
2019-03-30T09:16:26.190Z,100357.99
2019-03-30T09:18:53.549Z,100366.48
2019-03-30T09:21:20.908Z,100362.15
2019-03-30T09:23:48.258Z,100361.72
2019-03-30T09:26:16.745Z,100358.32
2019-03-30T09:28:44.667Z,100352.03
2019-03-30T09:31:12.022Z,100344.67
2019-03-30T09:33:39.289Z,100343.64
2019-03-30T09:36:06.654Z,100342.60
2019-03-30T09:38:33.979Z,100334.63
2019-03-30T09:41:01.336Z,100344.75
2019-03-30T09:43:28.583Z,100338.94
2019-03-30T09:45:55.924Z,100325.97
2019-03-30T09:48:23.269Z,100317.64
2019-03-30T09:50:50.522Z,100318.29
2019-03-30T09:53:17.880Z,100322.70
2019-03-30T09:55:45.273Z,100313.73
2019-03-30T09:58:12.509Z,100311.28
2019-03-30T10:00:40.647Z,100307.26
2019-03-30T10:03:07.995Z,100306.62
2019-03-30T10:05:35.355Z,100310.62
2019-03-30T10:08:02.701Z,100305.66
2019-03-30T10:10:30.044Z,100300.53
2019-03-30T10:12:57.286Z,100305.12
2019-03-30T10:15:24.634Z,100302.02
2019-03-30T10:17:51.967Z,100301.27
2019-03-30T10:20:19.311Z,100295.02
2019-03-30T10:22:46.619Z,100290.78
2019-03-30T10:25:13.984Z,100288.46
2019-03-30T10:27:41.338Z,100290.38
2019-03-30T10:30:11.007Z,100274.51
2019-03-30T10:32:38.229Z,100279.77
2019-03-30T10:35:05.881Z,100286.41
2019-03-30T10:37:33.538Z,100276.28
2019-03-30T10:40:00.896Z,100271.78
2019-03-30T10:42:28.135Z,100190.23
2019-03-30T10:44:55.375Z,100262.92
2019-03-30T10:47:22.702Z,100260.48
2019-03-30T10:49:50.418Z,100258.42
2019-03-30T10:52:17.768Z,100254.49
2019-03-30T10:54:52.691Z,100245.50
2019-03-30T10:57:14.185Z,100252.80
2019-03-30T10:59:41.542Z,100246.16
2019-03-30T11:02:08.875Z,100245.83
2019-03-30T11:04:37.593Z,100244.45
2019-03-30T11:07:05.155Z,100237.30
2019-03-30T11:09:32.488Z,100231.34
2019-03-30T11:11:59.930Z,100229.37
2019-03-30T11:14:27.250Z,100221.77
2019-03-30T11:16:54.723Z,100234.98
2019-03-30T11:19:22.058Z,100220.27
2019-03-30T11:21:49.421Z,100220.31
2019-03-30T11:24:16.730Z,100218.12
2019-03-30T11:26:44.076Z,100210.46
2019-03-30T11:29:11.316Z,100206.81
2019-03-30T11:31:38.989Z,100214.97
2019-03-30T11:34:06.336Z,100209.15
2019-03-30T11:36:33.662Z,100196.45
2019-03-30T11:39:00.870Z,100193.73
2019-03-30T11:41:28.233Z,100191.77
2019-03-30T11:43:55.909Z,100198.64
2019-03-30T11:46:23.245Z,100209.84
2019-03-30T11:48:50.469Z,100189.43
2019-03-30T11:51:17.823Z,100179.95
2019-03-30T11:53:45.040Z,100175.87
2019-03-30T11:56:12.292Z,100175.48
2019-03-30T11:58:39.628Z,100164.45
2019-03-30T12:01:06.977Z,100157.73
2019-03-30T12:03:34.210Z,100156.70
2019-03-30T12:06:01.552Z,100153.99
2019-03-30T12:08:28.873Z,100146.00
2019-03-30T12:10:56.117Z,100144.35
2019-03-30T12:13:23.501Z,100128.98
2019-03-30T12:15:50.822Z,100132.66
2019-03-30T12:18:18.432Z,100134.72
2019-03-30T12:20:45.780Z,100116.45
2019-03-30T12:23:13.445Z,100127.65
2019-03-30T12:25:40.807Z,100122.46
2019-03-30T12:28:08.142Z,100111.69
2019-03-30T12:30:35.483Z,100108.08
2019-03-30T12:33:03.025Z,100113.97
2019-03-30T12:35:30.362Z,100119.27
2019-03-30T12:37:57.697Z,100112.39
2019-03-30T12:40:25.039Z,100108.36
2019-03-30T12:42:52.371Z,100109.71
2019-03-30T12:45:19.719Z,100092.52
2019-03-30T12:47:47.040Z,100091.25
2019-03-30T12:50:14.467Z,100081.08
2019-03-30T12:52:41.686Z,100088.09
2019-03-30T12:55:09.022Z,100087.58
2019-03-30T12:57:36.257Z,100085.41
2019-03-30T13:00:04.312Z,100092.45
2019-03-30T13:02:31.628Z,100088.22
2019-03-30T13:04:58.875Z,100088.80
2019-03-30T13:07:26.201Z,100077.61
2019-03-30T13:09:53.429Z,100081.63
2019-03-30T13:12:20.753Z,100068.56
2019-03-30T13:14:47.996Z,100072.47
2019-03-30T13:17:15.326Z,100062.81
2019-03-30T13:19:43.541Z,100054.52
2019-03-30T13:22:10.767Z,100063.87
2019-03-30T13:24:38.079Z,100054.25
2019-03-30T13:27:05.423Z,100057.74
2019-03-30T13:29:33.029Z,100065.95
2019-03-30T13:32:00.394Z,100051.56
2019-03-30T13:34:27.637Z,100049.94
2019-03-30T13:37:06.037Z,100059.03
2019-03-30T13:39:33.268Z,100053.38
2019-03-30T13:42:00.692Z,100051.70
2019-03-30T13:44:28.038Z,100050.97
2019-03-30T13:46:55.360Z,100035.98
2019-03-30T13:49:22.710Z,100031.27
2019-03-30T13:51:50.335Z,100039.61
2019-03-30T13:54:17.837Z,100047.14
2019-03-30T13:56:45.631Z,100038.16
2019-03-30T13:59:12.968Z,100026.77
2019-03-30T14:01:40.324Z,100026.52
2019-03-30T14:04:08.033Z,100026.73
2019-03-30T14:06:36.268Z,100024.19
2019-03-30T14:09:05.534Z,100036.27
2019-03-30T14:11:32.882Z,100012.99
2019-03-30T14:14:00.198Z,100030.58
2019-03-30T14:16:27.541Z,100031.72
2019-03-30T14:18:54.870Z,100021.23
2019-03-30T14:21:22.219Z,100028.83
2019-03-30T14:23:50.136Z,100021.66
2019-03-30T14:26:30.367Z,100014.60
2019-03-30T14:28:46.704Z,100012.05
2019-03-30T14:31:13.950Z,100029.23
2019-03-30T14:33:41.413Z,100032.34
2019-03-30T14:36:08.787Z,100026.51
2019-03-30T14:38:36.768Z,100026.06
2019-03-30T14:41:06.773Z,100025.77
2019-03-30T14:43:34.106Z,100026.92
2019-03-30T14:46:01.344Z,100015.57
2019-03-30T14:48:28.677Z,100010.69
2019-03-30T14:50:56.835Z,100018.98
2019-03-30T14:53:24.499Z,100021.13
2019-03-30T14:55:51.852Z,100016.84
2019-03-30T14:58:19.208Z,100015.14
2019-03-30T15:00:47.674Z,100004.55
2019-03-30T15:03:14.915Z,100003.42
2019-03-30T15:05:42.572Z,99997.75
2019-03-30T15:08:09.811Z,99996.97
2019-03-30T15:10:37.023Z,99971.08
2019-03-30T15:13:04.632Z,100000.66
2019-03-30T15:15:32.666Z,100015.08
2019-03-30T15:18:00.023Z,100011.48
2019-03-30T15:20:27.359Z,100013.27
2019-03-30T15:22:54.700Z,100017.00
2019-03-30T15:25:22.022Z,100009.94
2019-03-30T15:27:49.389Z,100019.30
2019-03-30T15:30:16.753Z,100017.63
2019-03-30T15:32:44.091Z,100025.09
2019-03-30T15:35:11.409Z,100018.78
2019-03-30T15:37:38.655Z,100022.94
2019-03-30T15:40:06.438Z,100019.63
2019-03-30T15:42:33.799Z,100017.67
2019-03-30T15:45:01.117Z,100019.25
2019-03-30T15:47:28.715Z,100018.77
2019-03-30T15:49:56.190Z,100008.46
2019-03-30T15:52:25.402Z,100021.88
2019-03-30T15:54:52.711Z,100016.48
2019-03-30T15:57:20.493Z,100017.60
2019-03-30T15:59:48.115Z,100008.28
2019-03-30T16:02:15.572Z,100016.62
2019-03-30T16:04:42.808Z,100026.88
2019-03-30T16:07:10.059Z,100027.41
2019-03-30T16:09:37.445Z,100030.27
2019-03-30T16:12:04.779Z,100020.61
2019-03-30T16:14:34.080Z,100032.41
2019-03-30T16:17:01.431Z,100024.94
2019-03-30T16:19:28.749Z,100030.59
2019-03-30T16:21:56.500Z,100028.05
2019-03-30T16:24:45.579Z,100029.28
2019-03-30T16:27:27.864Z,100033.93
2019-03-30T16:29:42.644Z,100029.00
2019-03-30T16:32:09.999Z,100037.85
2019-03-30T16:34:37.226Z,100026.30
2019-03-30T16:37:04.549Z,100036.68
2019-03-30T16:39:34.624Z,100032.45
2019-03-30T16:42:01.139Z,100036.34
2019-03-30T16:44:28.485Z,100034.25
2019-03-30T16:46:57.410Z,100034.31
2019-03-30T16:49:24.834Z,100032.05
2019-03-30T16:51:52.157Z,100027.94
2019-03-30T16:54:19.504Z,100035.56
2019-03-30T16:56:46.743Z,100041.31
2019-03-30T16:59:14.184Z,100029.45
2019-03-30T17:01:41.383Z,100030.64
2019-03-30T17:04:08.618Z,100034.41
2019-03-30T17:06:35.923Z,100032.02
2019-03-30T17:09:04.796Z,100024.82
2019-03-30T17:11:32.116Z,100028.48
2019-03-30T17:13:59.508Z,100023.77
2019-03-30T17:16:26.830Z,100021.99
2019-03-30T17:18:54.159Z,100025.22
2019-03-30T17:21:21.406Z,100025.06
2019-03-30T17:23:48.754Z,100022.43
2019-03-30T17:26:15.943Z,100023.06
2019-03-30T17:28:43.279Z,100032.09
2019-03-30T17:31:10.497Z,100026.65
2019-03-30T17:33:37.804Z,100026.31
2019-03-30T17:36:05.133Z,100030.56
2019-03-30T17:38:32.374Z,100027.71
2019-03-30T17:40:59.673Z,100032.13
2019-03-30T17:43:27.005Z,100035.36
2019-03-30T17:45:54.315Z,100040.39
2019-03-30T17:48:21.651Z,100042.38
2019-03-30T17:50:48.964Z,100043.69
2019-03-30T17:53:17.606Z,100045.72
2019-03-30T17:55:48.132Z,100048.75
2019-03-30T17:58:15.465Z,100047.64
2019-03-30T18:00:42.779Z,100050.98
2019-03-30T18:03:10.026Z,100061.37
2019-03-30T18:05:37.329Z,100062.64
2019-03-30T18:08:06.240Z,100057.39
2019-03-30T18:10:33.446Z,100057.30
2019-03-30T18:13:02.036Z,100055.19
2019-03-30T18:15:29.291Z,100051.63
2019-03-30T18:17:57.013Z,100058.38
2019-03-30T18:20:37.356Z,100063.44
2019-03-30T18:23:04.596Z,100064.28
2019-03-30T18:25:31.929Z,100066.71
2019-03-30T18:27:59.298Z,100071.45
2019-03-30T18:30:37.424Z,100075.16
2019-03-30T18:33:04.978Z,100077.25
2019-03-30T18:35:32.632Z,100074.03
2019-03-30T18:38:00.727Z,100071.37
2019-03-30T18:40:29.691Z,100078.14
2019-03-30T18:42:57.498Z,100089.75
2019-03-30T18:45:25.860Z,100086.59
2019-03-30T18:47:59.592Z,100092.97
2019-03-30T18:50:26.939Z,100093.03
2019-03-30T18:52:54.846Z,100096.75
2019-03-30T18:55:22.877Z,100089.06
2019-03-30T18:57:50.242Z,100094.95
2019-03-30T19:00:25.214Z,100102.60
2019-03-30T19:02:52.458Z,100096.95
2019-03-30T19:05:19.890Z,100106.06
2019-03-30T19:07:47.211Z,100105.27
2019-03-30T19:10:14.457Z,100103.84
2019-03-30T19:12:41.660Z,100112.98
2019-03-30T19:15:09.092Z,100114.28
2019-03-30T19:17:36.422Z,100108.66
2019-03-30T19:20:04.447Z,100116.30
2019-03-30T19:22:31.676Z,100115.86
2019-03-30T19:24:59.028Z,100118.36
2019-03-30T19:27:26.286Z,100115.77
2019-03-30T19:29:53.600Z,100119.97
2019-03-30T19:32:20.939Z,100120.17
2019-03-30T19:34:48.284Z,100116.56
2019-03-30T19:37:15.614Z,100119.27
2019-03-30T19:39:42.946Z,100121.80
2019-03-30T19:42:10.167Z,100116.10
2019-03-30T19:44:37.609Z,100118.92
2019-03-30T19:47:04.960Z,100112.52
2019-03-30T19:49:33.484Z,100117.38
2019-03-30T19:52:20.081Z,100123.33
2019-03-30T19:54:47.425Z,100118.11
2019-03-30T19:57:14.777Z,100126.67
2019-03-30T19:59:42.019Z,100119.84
2019-03-30T20:02:09.782Z,100126.08
2019-03-30T20:04:37.115Z,100124.86
2019-03-30T20:07:04.441Z,100120.60
2019-03-30T20:09:31.679Z,100123.33
2019-03-30T20:11:58.891Z,100121.32
2019-03-30T20:14:26.218Z,100128.19
2019-03-30T20:16:53.430Z,100132.22
2019-03-30T20:19:20.770Z,100124.28
2019-03-30T20:21:48.094Z,100130.78
2019-03-30T20:24:15.343Z,100130.21
2019-03-30T20:26:42.616Z,100128.58
2019-03-30T20:29:24.385Z,100126.69
2019-03-30T20:31:39.223Z,100125.64
2019-03-30T20:34:06.436Z,100126.69
2019-03-30T20:36:35.392Z,100120.20
2019-03-30T20:39:22.066Z,100123.17
2019-03-30T20:41:49.426Z,100118.91
2019-03-30T20:44:16.732Z,100121.27
2019-03-30T20:46:44.060Z,100122.11
2019-03-30T20:49:11.565Z,100121.64
2019-03-30T20:51:38.796Z,100116.45
2019-03-30T20:54:06.219Z,100115.71
2019-03-30T20:56:33.530Z,100122.92
2019-03-30T20:59:00.755Z,100113.22
2019-03-30T21:01:28.076Z,100121.81
2019-03-30T21:03:55.403Z,100122.98
2019-03-30T21:06:22.658Z,100118.83
2019-03-30T21:08:49.886Z,100120.05
2019-03-30T21:11:17.103Z,100127.56
2019-03-30T21:13:44.311Z,100132.93
2019-03-30T21:16:11.521Z,100127.69
2019-03-30T21:18:38.724Z,100137.39
2019-03-30T21:21:08.995Z,100139.30
2019-03-30T21:23:35.071Z,100143.41
2019-03-30T21:26:02.396Z,100139.64
2019-03-30T21:28:29.589Z,100138.77
2019-03-30T21:30:56.932Z,100143.48
2019-03-30T21:33:24.239Z,100132.78
2019-03-30T21:35:51.460Z,100138.23
2019-03-30T21:38:18.790Z,100137.20
2019-03-30T21:40:46.121Z,100138.26
2019-03-30T21:43:13.337Z,100141.66
2019-03-30T21:45:40.687Z,100140.06
2019-03-30T21:48:07.998Z,100144.47
2019-03-30T21:50:35.333Z,100141.77
2019-03-30T21:53:02.744Z,100142.03
2019-03-30T21:55:29.987Z,100142.50
2019-03-30T21:57:57.751Z,100144.30
2019-03-30T22:00:33.312Z,100144.33
2019-03-30T22:03:00.555Z,100146.03
2019-03-30T22:05:28.066Z,100142.09
2019-03-30T22:07:55.914Z,100146.53
2019-03-30T22:10:27.079Z,100138.22
2019-03-30T22:12:54.406Z,100148.63
2019-03-30T22:15:26.040Z,100147.60
2019-03-30T22:17:53.288Z,100153.48
2019-03-30T22:20:21.425Z,100158.00
2019-03-30T22:22:48.844Z,100156.25
2019-03-30T22:25:16.171Z,100153.74
2019-03-30T22:27:43.490Z,100154.91
2019-03-30T22:30:24.208Z,100152.03
2019-03-30T22:32:40.254Z,100162.94
2019-03-30T22:35:07.684Z,100151.00
2019-03-30T22:37:34.910Z,100153.22
2019-03-30T22:40:02.433Z,100149.39
2019-03-30T22:42:29.758Z,100147.58
2019-03-30T22:44:56.964Z,100153.04
2019-03-30T22:47:24.206Z,100145.29
2019-03-30T22:49:51.841Z,100146.75
2019-03-30T22:52:20.449Z,100152.25
2019-03-30T22:54:48.381Z,100142.33
2019-03-30T22:57:15.532Z,100150.02
2019-03-30T22:59:42.864Z,100153.17
2019-03-30T23:02:10.229Z,100152.77
2019-03-30T23:04:37.662Z,100155.11
2019-03-30T23:07:04.986Z,100151.41
2019-03-30T23:09:32.291Z,100154.80
2019-03-30T23:11:59.520Z,100159.66
2019-03-30T23:14:26.757Z,100159.06
2019-03-30T23:16:54.087Z,100159.05
2019-03-30T23:19:21.512Z,100157.98
2019-03-30T23:21:48.857Z,100161.77
2019-03-30T23:24:16.068Z,100160.79
2019-03-30T23:26:43.399Z,100164.78
2019-03-30T23:29:10.709Z,100166.17
2019-03-30T23:31:37.940Z,100153.24
2019-03-30T23:34:05.246Z,100165.45
2019-03-30T23:36:32.446Z,100168.86
2019-03-30T23:38:59.784Z,100166.20
2019-03-30T23:41:27.100Z,100166.51
2019-03-30T23:43:54.438Z,100168.34
2019-03-30T23:46:21.765Z,100163.95
2019-03-30T23:48:49.005Z,100166.43
2019-03-30T23:51:18.387Z,100167.53
2019-03-30T23:53:45.628Z,100170.31
2019-03-30T23:56:20.489Z,100173.63
2019-03-30T23:58:47.843Z,100166.55
